ACA855 EGLL-CYYZ
Flight info
| Callsign | ACA855 |
|---|---|
| Flight time | 3h 5m |
| Altitude | 34000 |
| Route | CPT L9 BUCGO DCT TIGWE DCT ARPAK DCT FELCA DCT FADZU DCT NICXI DCT BAKUR DCT TOMTO DCT MOMIN DCT DOGAL/M083F350 NATC NEEKO/N0486F360 N622E TAFFY DCT VILRO DCT SAVEX Q806 TUKIR RAGID6 |
| Aircraft | B77W/H-SDE1E2E3FGHIJ2J3J4J5M1RWXY/LB1D1 |
Departure
| Time | 2026-05-04 14:33 |
|---|---|
| Airport | London Heathrow Airport (EGLL) |
Arrival
| Time | 2026-05-04 17:39 |
|---|---|
| Airport | Toronto Pearson International Airport (CYYZ) |
| Time | Latitude | Longitude | Altitude | Speed | Heading |
|---|---|---|---|---|---|
| 2026-05-04 14:09 | 51.47123 | -0.47727 | 91 ft | 0 kts | 89° |
| 2026-05-04 14:19 | 51.47123 | -0.47763 | 92 ft | 4 kts | 89° |
| 2026-05-04 14:20 | 51.47123 | -0.47805 | 92 ft | 4 kts | 89° |
| 2026-05-04 14:20 | 51.47123 | -0.47841 | 92 ft | 4 kts | 70° |
| 2026-05-04 14:20 | 51.47108 | -0.47866 | 93 ft | 4 kts | 11° |
| 2026-05-04 14:21 | 51.47074 | -0.47869 | 91 ft | 0 kts | 358° |
| 2026-05-04 14:24 | 51.47138 | -0.47870 | 91 ft | 17 kts | 360° |
| 2026-05-04 14:24 | 51.47187 | -0.47869 | 91 ft | 1 kts | 1° |
| 2026-05-04 14:25 | 51.47219 | -0.47868 | 91 ft | 11 kts | 1° |
| 2026-05-04 14:25 | 51.47375 | -0.47861 | 91 ft | 11 kts | 359° |
| 2026-05-04 14:25 | 51.47468 | -0.47864 | 94 ft | 14 kts | 360° |
| 2026-05-04 14:26 | 51.47565 | -0.47808 | 94 ft | 15 kts | 58° |
| 2026-05-04 14:26 | 51.47591 | -0.47624 | 92 ft | 19 kts | 87° |
| 2026-05-04 14:26 | 51.47589 | -0.47397 | 91 ft | 23 kts | 92° |
| 2026-05-04 14:26 | 51.47583 | -0.47206 | 94 ft | 15 kts | 93° |
| 2026-05-04 14:27 | 51.47581 | -0.47069 | 94 ft | 8 kts | 90° |
| 2026-05-04 14:27 | 51.47581 | -0.46981 | 94 ft | 8 kts | 91° |
| 2026-05-04 14:27 | 51.47580 | -0.46892 | 94 ft | 8 kts | 89° |
| 2026-05-04 14:27 | 51.47583 | -0.46801 | 95 ft | 8 kts | 86° |
| 2026-05-04 14:28 | 51.47588 | -0.46689 | 93 ft | 14 kts | 86° |
| 2026-05-04 14:28 | 51.47593 | -0.46489 | 94 ft | 22 kts | 89° |
| 2026-05-04 14:28 | 51.47592 | -0.46264 | 92 ft | 21 kts | 91° |
| 2026-05-04 14:28 | 51.47588 | -0.46048 | 95 ft | 21 kts | 91° |
| 2026-05-04 14:29 | 51.47594 | -0.45643 | 94 ft | 18 kts | 91° |
| 2026-05-04 14:29 | 51.47593 | -0.45239 | 94 ft | 18 kts | 89° |
| 2026-05-04 14:30 | 51.47593 | -0.45025 | 94 ft | 20 kts | 91° |
| 2026-05-04 14:30 | 51.47594 | -0.44812 | 94 ft | 19 kts | 86° |
| 2026-05-04 14:30 | 51.47594 | -0.44377 | 94 ft | 21 kts | 92° |
| 2026-05-04 14:31 | 51.47591 | -0.44175 | 91 ft | 15 kts | 91° |
| 2026-05-04 14:31 | 51.47589 | -0.43841 | 91 ft | 20 kts | 92° |
| 2026-05-04 14:32 | 51.47647 | -0.43480 | 95 ft | 16 kts | 54° |
| 2026-05-04 14:32 | 51.47739 | -0.43421 | 95 ft | 16 kts | 325° |
| 2026-05-04 14:32 | 51.47764 | -0.43612 | 91 ft | 28 kts | 270° |
| 2026-05-04 14:32 | 51.47770 | -0.44150 | 93 ft | 79 kts | 270° |
| 2026-05-04 14:33 | 51.47766 | -0.45404 | 93 ft | 143 kts | 270° |
| 2026-05-04 14:33 | 51.47764 | -0.47243 | 116 ft | 188 kts | 270° |
| 2026-05-04 14:33 | 51.47745 | -0.49324 | 433 ft | 205 kts | 270° |
| 2026-05-04 14:33 | 51.47702 | -0.51647 | 1055 ft | 214 kts | 269° |
| 2026-05-04 14:34 | 51.47645 | -0.54125 | 1565 ft | 233 kts | 266° |
| 2026-05-04 14:34 | 51.47303 | -0.56792 | 1886 ft | 252 kts | 255° |
| 2026-05-04 14:34 | 51.46817 | -0.59527 | 2569 ft | 259 kts | 255° |
| 2026-05-04 14:34 | 51.46326 | -0.62338 | 3332 ft | 261 kts | 255° |
| 2026-05-04 14:35 | 51.45849 | -0.65158 | 4060 ft | 263 kts | 257° |
| 2026-05-04 14:35 | 51.45615 | -0.68047 | 4728 ft | 267 kts | 266° |
| 2026-05-04 14:35 | 51.45524 | -0.71059 | 5517 ft | 268 kts | 267° |
| 2026-05-04 14:35 | 51.45426 | -0.74024 | 5979 ft | 266 kts | 266° |
| 2026-05-04 14:36 | 51.45345 | -0.76967 | 5981 ft | 270 kts | 269° |
| 2026-05-04 14:36 | 51.45331 | -0.79976 | 5996 ft | 269 kts | 269° |
| 2026-05-04 14:36 | 51.45315 | -0.82971 | 5999 ft | 268 kts | 269° |
| 2026-05-04 14:36 | 51.45291 | -0.85956 | 6000 ft | 267 kts | 268° |
| 2026-05-04 14:37 | 51.45322 | -0.88922 | 5986 ft | 265 kts | 276° |
| 2026-05-04 14:37 | 51.45641 | -0.91838 | 6001 ft | 267 kts | 281° |
| 2026-05-04 14:37 | 51.46021 | -0.94773 | 6003 ft | 271 kts | 281° |
| 2026-05-04 14:37 | 51.46386 | -0.97734 | 6000 ft | 273 kts | 279° |
| 2026-05-04 14:38 | 51.46702 | -1.00407 | 6002 ft | 274 kts | 280° |
| 2026-05-04 14:38 | 51.47058 | -1.03422 | 6004 ft | 276 kts | 280° |
| 2026-05-04 14:38 | 51.47408 | -1.06411 | 6007 ft | 277 kts | 279° |
| 2026-05-04 14:38 | 51.47762 | -1.09454 | 6009 ft | 278 kts | 278° |
| 2026-05-04 14:39 | 51.48112 | -1.12487 | 5990 ft | 276 kts | 279° |
| 2026-05-04 14:39 | 51.48457 | -1.15486 | 5988 ft | 270 kts | 279° |
| 2026-05-04 14:39 | 51.48796 | -1.18445 | 6014 ft | 270 kts | 279° |
| 2026-05-04 14:40 | 51.50344 | -1.23847 | 7057 ft | 278 kts | 316° |
| 2026-05-04 14:40 | 51.51786 | -1.25952 | 7686 ft | 282 kts | 316° |
| 2026-05-04 14:40 | 51.53202 | -1.28055 | 8421 ft | 283 kts | 315° |
| 2026-05-04 14:40 | 51.54647 | -1.30215 | 9161 ft | 285 kts | 315° |
| 2026-05-04 14:41 | 51.56104 | -1.32402 | 9844 ft | 288 kts | 315° |
| 2026-05-04 14:41 | 51.57572 | -1.34613 | 10463 ft | 291 kts | 315° |
| 2026-05-04 14:41 | 51.60549 | -1.39403 | 11160 ft | 323 kts | 306° |
| 2026-05-04 14:42 | 51.63058 | -1.45900 | 11643 ft | 365 kts | 295° |
| 2026-05-04 14:42 | 51.64238 | -1.49645 | 12290 ft | 375 kts | 295° |
| 2026-05-04 14:42 | 51.65413 | -1.53368 | 13098 ft | 381 kts | 296° |
| 2026-05-04 14:43 | 51.66645 | -1.57174 | 14025 ft | 385 kts | 296° |
| 2026-05-04 14:43 | 51.67903 | -1.61009 | 14785 ft | 390 kts | 296° |
| 2026-05-04 14:43 | 51.69160 | -1.64928 | 15509 ft | 396 kts | 293° |
| 2026-05-04 14:43 | 51.70136 | -1.69100 | 16217 ft | 400 kts | 285° |
| 2026-05-04 14:44 | 51.70795 | -1.73477 | 16965 ft | 405 kts | 278° |
| 2026-05-04 14:44 | 51.71142 | -1.78007 | 17714 ft | 409 kts | 274° |
| 2026-05-04 14:44 | 51.71590 | -1.84906 | 18757 ft | 416 kts | 275° |
| 2026-05-04 14:44 | 51.72233 | -1.94112 | 20162 ft | 422 kts | 275° |
| 2026-05-04 14:45 | 51.72880 | -2.03215 | 21376 ft | 431 kts | 275° |
| 2026-05-04 14:45 | 51.73559 | -2.12919 | 22683 ft | 439 kts | 275° |
| 2026-05-04 14:45 | 51.74230 | -2.22590 | 23867 ft | 446 kts | 275° |
| 2026-05-04 14:45 | 51.74936 | -2.32818 | 24932 ft | 453 kts | 274° |
| 2026-05-04 14:46 | 51.75628 | -2.42973 | 25959 ft | 459 kts | 274° |
| 2026-05-04 14:46 | 51.76325 | -2.53362 | 26696 ft | 470 kts | 275° |
| 2026-05-04 14:46 | 51.76990 | -2.63903 | 27672 ft | 474 kts | 274° |
| 2026-05-04 14:46 | 51.77670 | -2.74551 | 28553 ft | 479 kts | 274° |
| 2026-05-04 14:47 | 51.78363 | -2.85363 | 29153 ft | 489 kts | 275° |
| 2026-05-04 14:47 | 51.79045 | -2.96075 | 30721 ft | 468 kts | 276° |
| 2026-05-04 14:47 | 51.79797 | -3.05712 | 32274 ft | 458 kts | 276° |
| 2026-05-04 14:47 | 51.80302 | -3.16200 | 32363 ft | 475 kts | 274° |
| 2026-05-04 14:48 | 51.80905 | -3.26970 | 32522 ft | 488 kts | 275° |
| 2026-05-04 14:48 | 51.81567 | -3.37976 | 32881 ft | 494 kts | 275° |
| 2026-05-04 14:48 | 51.82224 | -3.49112 | 33229 ft | 501 kts | 275° |
| 2026-05-04 14:48 | 51.83235 | -3.60242 | 33828 ft | 501 kts | 282° |
| 2026-05-04 14:49 | 51.84726 | -3.71309 | 34037 ft | 506 kts | 282° |
| 2026-05-04 14:49 | 51.86177 | -3.82278 | 34006 ft | 503 kts | 282° |
| 2026-05-04 14:49 | 51.88901 | -4.03726 | 34036 ft | 491 kts | 282° |
| 2026-05-04 14:50 | 51.91612 | -4.25321 | 34022 ft | 488 kts | 282° |
| 2026-05-04 14:50 | 51.94269 | -4.46830 | 34010 ft | 490 kts | 282° |
| 2026-05-04 14:51 | 51.96921 | -4.68645 | 34039 ft | 503 kts | 283° |
| 2026-05-04 14:51 | 51.99605 | -4.91099 | 34031 ft | 507 kts | 283° |
| 2026-05-04 14:52 | 52.03654 | -5.11999 | 34018 ft | 493 kts | 300° |
| 2026-05-04 14:52 | 52.10652 | -5.30914 | 34053 ft | 488 kts | 304° |
| 2026-05-04 14:53 | 52.17703 | -5.50112 | 34033 ft | 499 kts | 304° |
| 2026-05-04 14:53 | 52.24703 | -5.69649 | 34055 ft | 506 kts | 300° |
| 2026-05-04 14:54 | 52.30325 | -5.90642 | 33995 ft | 500 kts | 296° |
| 2026-05-04 14:54 | 52.35687 | -6.10967 | 34053 ft | 495 kts | 297° |
| 2026-05-04 14:55 | 52.41197 | -6.31815 | 34086 ft | 504 kts | 297° |
| 2026-05-04 14:55 | 52.46708 | -6.52902 | 34058 ft | 508 kts | 297° |
| 2026-05-04 14:56 | 52.52177 | -6.74042 | 34071 ft | 498 kts | 296° |
| 2026-05-04 14:56 | 52.57521 | -6.94865 | 34064 ft | 492 kts | 296° |
| 2026-05-04 14:57 | 52.62707 | -7.15270 | 34068 ft | 494 kts | 296° |
| 2026-05-04 14:57 | 52.67945 | -7.36069 | 34072 ft | 496 kts | 296° |
| 2026-05-04 14:58 | 52.73197 | -7.57121 | 34056 ft | 497 kts | 295° |
| 2026-05-04 14:58 | 52.78402 | -7.78191 | 34059 ft | 492 kts | 295° |
| 2026-05-04 14:59 | 52.83479 | -7.98941 | 34088 ft | 483 kts | 295° |
| 2026-05-04 15:00 | 52.90307 | -8.29465 | 34090 ft | 480 kts | 290° |
| 2026-05-04 15:00 | 52.94426 | -8.50768 | 34100 ft | 489 kts | 290° |
| 2026-05-04 15:01 | 53.00592 | -8.82648 | 34077 ft | 475 kts | 290° |
| 2026-05-04 15:01 | 53.04464 | -9.02929 | 34103 ft | 472 kts | 290° |
| 2026-05-04 15:02 | 53.11768 | -9.41800 | 34143 ft | 483 kts | 289° |
| 2026-05-04 15:02 | 53.19472 | -9.83926 | 34077 ft | 466 kts | 289° |
| 2026-05-04 15:03 | 53.26807 | -10.24916 | 34179 ft | 478 kts | 289° |
| 2026-05-04 15:03 | 53.34211 | -10.67302 | 34096 ft | 464 kts | 288° |
| 2026-05-04 15:04 | 53.41091 | -11.07588 | 34182 ft | 468 kts | 287° |
| 2026-05-04 15:04 | 53.48180 | -11.50119 | 34117 ft | 468 kts | 286° |
| 2026-05-04 15:05 | 53.51579 | -11.70900 | 34084 ft | 455 kts | 286° |
| 2026-05-04 15:05 | 53.54892 | -11.91381 | 34135 ft | 455 kts | 286° |
| 2026-05-04 15:05 | 53.61418 | -12.32492 | 34179 ft | 471 kts | 285° |
| 2026-05-04 15:06 | 53.67856 | -12.74090 | 34095 ft | 450 kts | 284° |
| 2026-05-04 15:07 | 53.77054 | -13.35421 | 34201 ft | 464 kts | 283° |
| 2026-05-04 15:07 | 53.83118 | -13.77208 | 34125 ft | 449 kts | 283° |
| 2026-05-04 15:08 | 53.88812 | -14.17507 | 34205 ft | 456 kts | 283° |
| 2026-05-04 15:08 | 53.94612 | -14.59685 | 34149 ft | 453 kts | 282° |
| 2026-05-04 15:09 | 54.00093 | -15.00219 | 34185 ft | 445 kts | 285° |
| 2026-05-04 15:09 | 54.04332 | -15.19439 | 34208 ft | 456 kts | 290° |
| 2026-05-04 15:09 | 54.08896 | -15.39721 | 34218 ft | 459 kts | 289° |
| 2026-05-04 15:10 | 54.17700 | -15.79822 | 34155 ft | 444 kts | 289° |
| 2026-05-04 15:10 | 54.21988 | -15.99642 | 34222 ft | 447 kts | 289° |
| 2026-05-04 15:10 | 54.30472 | -16.39421 | 34223 ft | 460 kts | 289° |
| 2026-05-04 15:11 | 54.34722 | -16.59641 | 34164 ft | 453 kts | 289° |
| 2026-05-04 15:11 | 54.43012 | -16.99689 | 34213 ft | 445 kts | 288° |
| 2026-05-04 15:12 | 54.51193 | -17.40018 | 34239 ft | 460 kts | 288° |
| 2026-05-04 15:12 | 54.59353 | -17.81079 | 34180 ft | 444 kts | 288° |
| 2026-05-04 15:13 | 54.67088 | -18.20823 | 34273 ft | 452 kts | 288° |
| 2026-05-04 15:13 | 54.75021 | -18.62461 | 34204 ft | 452 kts | 288° |
| 2026-05-04 15:14 | 54.82529 | -19.02732 | 34245 ft | 442 kts | 288° |
| 2026-05-04 15:14 | 54.90089 | -19.44186 | 34265 ft | 457 kts | 287° |
| 2026-05-04 15:15 | 54.97526 | -19.85898 | 34217 ft | 443 kts | 287° |
| 2026-05-04 15:15 | 55.00288 | -20.05327 | 34177 ft | 442 kts | 275° |
| 2026-05-04 15:15 | 55.01101 | -20.27156 | 34287 ft | 451 kts | 274° |
| 2026-05-04 15:16 | 55.03455 | -20.92834 | 34230 ft | 446 kts | 273° |
| 2026-05-04 15:16 | 55.04799 | -21.35255 | 35718 ft | 450 kts | 273° |
| 2026-05-04 15:17 | 55.05438 | -21.57230 | 36285 ft | 458 kts | 273° |
| 2026-05-04 15:17 | 55.07089 | -22.22131 | 36242 ft | 436 kts | 272° |
| 2026-05-04 15:18 | 55.07987 | -22.64790 | 36340 ft | 449 kts | 272° |
| 2026-05-04 15:19 | 55.09060 | -23.29331 | 36249 ft | 439 kts | 272° |
| 2026-05-04 15:19 | 55.09792 | -23.93778 | 36349 ft | 453 kts | 271° |
| 2026-05-04 15:20 | 55.10087 | -24.36196 | 36258 ft | 439 kts | 271° |
| 2026-05-04 15:20 | 55.10235 | -24.78507 | 36366 ft | 441 kts | 270° |
| 2026-05-04 15:21 | 55.10236 | -25.21127 | 36335 ft | 451 kts | 270° |
| 2026-05-04 15:21 | 55.10087 | -25.64055 | 36284 ft | 434 kts | 269° |
| 2026-05-04 15:22 | 55.09957 | -25.85171 | 36357 ft | 438 kts | 269° |
| 2026-05-04 15:22 | 55.09342 | -26.49295 | 36305 ft | 446 kts | 269° |
| 2026-05-04 15:23 | 55.08749 | -26.91757 | 36340 ft | 435 kts | 268° |
| 2026-05-04 15:23 | 55.08011 | -27.34070 | 36393 ft | 453 kts | 268° |
| 2026-05-04 15:24 | 55.07096 | -27.77701 | 36305 ft | 441 kts | 268° |
| 2026-05-04 15:24 | 55.06088 | -28.18897 | 36385 ft | 443 kts | 267° |
| 2026-05-04 15:25 | 55.04866 | -28.62605 | 36368 ft | 453 kts | 267° |
| 2026-05-04 15:26 | 55.02815 | -29.25991 | 36384 ft | 444 kts | 266° |
| 2026-05-04 15:26 | 55.00356 | -29.91304 | 36311 ft | 445 kts | 266° |
| 2026-05-04 15:27 | 55.02122 | -30.54623 | 36410 ft | 452 kts | 273° |
| 2026-05-04 15:28 | 55.04326 | -31.19668 | 36326 ft | 443 kts | 273° |
| 2026-05-04 15:29 | 55.06173 | -31.84375 | 36413 ft | 459 kts | 273° |
| 2026-05-04 15:30 | 55.06995 | -32.17911 | 36371 ft | 448 kts | 273° |
| 2026-05-04 15:30 | 55.07361 | -32.34229 | 36372 ft | 449 kts | 273° |
| 2026-05-04 15:31 | 55.07706 | -32.50517 | 36377 ft | 451 kts | 272° |
| 2026-05-04 15:32 | 55.08235 | -32.77926 | 36377 ft | 453 kts | 272° |
| 2026-05-04 15:34 | 55.08701 | -33.05198 | 36366 ft | 455 kts | 272° |
| 2026-05-04 15:34 | 55.08954 | -33.21749 | 36372 ft | 455 kts | 272° |
| 2026-05-04 15:35 | 55.09184 | -33.38229 | 36373 ft | 455 kts | 272° |
| 2026-05-04 15:36 | 55.09392 | -33.54770 | 36371 ft | 454 kts | 272° |
| 2026-05-04 15:36 | 55.09518 | -33.65798 | 36351 ft | 454 kts | 272° |
| 2026-05-04 15:37 | 55.09634 | -33.76809 | 36369 ft | 454 kts | 272° |
| 2026-05-04 15:37 | 55.09739 | -33.87759 | 36369 ft | 454 kts | 272° |
| 2026-05-04 15:38 | 55.09836 | -33.98802 | 36363 ft | 455 kts | 272° |
| 2026-05-04 15:38 | 55.09921 | -34.09622 | 36362 ft | 456 kts | 272° |
| 2026-05-04 15:39 | 55.09998 | -34.20701 | 36362 ft | 456 kts | 272° |
| 2026-05-04 15:40 | 55.10094 | -34.37258 | 36354 ft | 456 kts | 272° |
| 2026-05-04 15:40 | 55.10146 | -34.48339 | 36357 ft | 456 kts | 272° |
| 2026-05-04 15:41 | 55.10188 | -34.59401 | 36360 ft | 456 kts | 272° |
| 2026-05-04 15:41 | 55.10220 | -34.70455 | 36357 ft | 455 kts | 272° |
| 2026-05-04 15:42 | 55.10241 | -34.81508 | 36355 ft | 455 kts | 272° |
| 2026-05-04 15:42 | 55.10253 | -34.92493 | 36357 ft | 455 kts | 272° |
| 2026-05-04 15:43 | 55.10255 | -35.03302 | 36342 ft | 455 kts | 272° |
| 2026-05-04 15:43 | 55.10247 | -35.14352 | 36349 ft | 455 kts | 272° |
| 2026-05-04 15:44 | 55.10229 | -35.25382 | 36353 ft | 454 kts | 271° |
| 2026-05-04 15:44 | 55.10201 | -35.36329 | 36353 ft | 454 kts | 271° |
| 2026-05-04 15:45 | 55.10164 | -35.47337 | 36350 ft | 453 kts | 271° |
| 2026-05-04 15:45 | 55.10116 | -35.58339 | 36348 ft | 453 kts | 271° |
| 2026-05-04 15:46 | 55.10059 | -35.69343 | 36347 ft | 453 kts | 271° |
| 2026-05-04 15:46 | 55.09992 | -35.80270 | 36348 ft | 453 kts | 271° |
| 2026-05-04 15:47 | 55.09914 | -35.91270 | 36341 ft | 453 kts | 271° |
| 2026-05-04 15:47 | 55.09829 | -36.02022 | 36343 ft | 454 kts | 271° |
| 2026-05-04 15:48 | 55.09732 | -36.13041 | 36344 ft | 454 kts | 271° |
| 2026-05-04 15:48 | 55.09569 | -36.29499 | 36334 ft | 454 kts | 271° |
| 2026-05-04 15:49 | 55.09446 | -36.40508 | 36326 ft | 453 kts | 271° |
| 2026-05-04 15:49 | 55.09315 | -36.51475 | 36328 ft | 451 kts | 271° |
| 2026-05-04 15:50 | 55.09175 | -36.62416 | 36331 ft | 450 kts | 271° |
| 2026-05-04 15:50 | 55.09025 | -36.73320 | 36330 ft | 449 kts | 271° |
| 2026-05-04 15:51 | 55.08867 | -36.84113 | 36331 ft | 448 kts | 271° |
| 2026-05-04 15:51 | 55.08698 | -36.94982 | 36329 ft | 448 kts | 271° |
| 2026-05-04 15:52 | 55.08523 | -37.05601 | 36310 ft | 447 kts | 271° |
| 2026-05-04 15:52 | 55.08336 | -37.16423 | 36321 ft | 446 kts | 271° |
| 2026-05-04 15:53 | 55.08141 | -37.27161 | 36318 ft | 445 kts | 271° |
| 2026-05-04 15:53 | 55.07936 | -37.37952 | 36314 ft | 445 kts | 271° |
| 2026-05-04 15:54 | 55.07721 | -37.48745 | 36320 ft | 445 kts | 271° |
| 2026-05-04 15:54 | 55.07496 | -37.59534 | 36323 ft | 445 kts | 271° |
| 2026-05-04 15:55 | 55.07263 | -37.70249 | 36312 ft | 444 kts | 271° |
| 2026-05-04 15:55 | 55.07019 | -37.81004 | 36299 ft | 443 kts | 271° |
| 2026-05-04 15:56 | 55.06767 | -37.91732 | 36304 ft | 442 kts | 271° |
| 2026-05-04 15:56 | 55.06513 | -38.02190 | 36307 ft | 441 kts | 271° |
| 2026-05-04 15:57 | 55.06244 | -38.12874 | 36303 ft | 440 kts | 271° |
| 2026-05-04 15:57 | 55.05967 | -38.23469 | 36293 ft | 440 kts | 271° |
| 2026-05-04 15:58 | 55.05680 | -38.34133 | 36256 ft | 440 kts | 271° |
| 2026-05-04 15:58 | 55.05383 | -38.44767 | 36282 ft | 438 kts | 271° |
| 2026-05-04 15:59 | 55.05081 | -38.55289 | 36281 ft | 437 kts | 271° |
| 2026-05-04 15:59 | 55.04768 | -38.65853 | 36287 ft | 436 kts | 271° |
| 2026-05-04 16:00 | 55.04447 | -38.76402 | 36281 ft | 435 kts | 271° |
| 2026-05-04 16:00 | 55.04117 | -38.86933 | 36282 ft | 435 kts | 271° |
| 2026-05-04 16:01 | 55.03779 | -38.97454 | 36278 ft | 435 kts | 271° |
| 2026-05-04 16:01 | 55.03442 | -39.07645 | 36265 ft | 434 kts | 271° |
| 2026-05-04 16:02 | 55.03086 | -39.18131 | 36269 ft | 433 kts | 271° |
| 2026-05-04 16:03 | 55.02538 | -39.33813 | 36260 ft | 432 kts | 271° |
| 2026-05-04 16:03 | 55.01800 | -39.54056 | 36254 ft | 431 kts | 270° |
| 2026-05-04 16:04 | 55.01011 | -39.74748 | 36240 ft | 430 kts | 270° |
| 2026-05-04 16:04 | 54.99084 | -40.16594 | 36233 ft | 430 kts | 268° |
| 2026-05-04 16:05 | 54.96559 | -40.57885 | 36212 ft | 427 kts | 267° |
| 2026-05-04 16:06 | 54.92677 | -41.18222 | 36190 ft | 423 kts | 265° |
| 2026-05-04 16:07 | 54.82733 | -42.55228 | 36140 ft | 423 kts | 264° |
| 2026-05-04 16:08 | 54.69200 | -44.13763 | 36054 ft | 425 kts | 261° |
| 2026-05-04 16:09 | 54.49252 | -46.11830 | 35900 ft | 430 kts | 256° |
| 2026-05-04 16:10 | 54.30539 | -47.72290 | 35834 ft | 436 kts | 253° |
| 2026-05-04 16:11 | 54.09646 | -49.31964 | 35737 ft | 444 kts | 250° |
| 2026-05-04 16:12 | 53.58693 | -51.65416 | 35555 ft | 458 kts | 237° |
| 2026-05-04 16:13 | 53.38193 | -52.43118 | 35640 ft | 478 kts | 237° |
| 2026-05-04 16:13 | 53.16338 | -53.23299 | 35430 ft | 481 kts | 236° |
| 2026-05-04 16:14 | 52.70987 | -54.81083 | 35522 ft | 493 kts | 236° |
| 2026-05-04 16:15 | 52.35016 | -55.98323 | 35210 ft | 474 kts | 233° |
| 2026-05-04 16:16 | 52.08356 | -56.72499 | 35412 ft | 495 kts | 234° |
| 2026-05-04 16:16 | 51.66803 | -57.85064 | 35165 ft | 482 kts | 234° |
| 2026-05-04 16:17 | 51.39217 | -58.57123 | 35347 ft | 494 kts | 234° |
| 2026-05-04 16:18 | 51.14346 | -59.20444 | 35215 ft | 493 kts | 234° |
| 2026-05-04 16:18 | 51.12518 | -59.25037 | 35218 ft | 489 kts | 234° |
| 2026-05-04 16:19 | 51.03420 | -59.47759 | 35219 ft | 488 kts | 234° |
| 2026-05-04 16:20 | 50.94266 | -59.70426 | 35229 ft | 488 kts | 234° |
| 2026-05-04 16:22 | 50.80102 | -60.05123 | 35219 ft | 489 kts | 234° |
| 2026-05-04 16:23 | 50.57829 | -60.58761 | 35234 ft | 486 kts | 234° |
| 2026-05-04 16:25 | 50.35621 | -61.11172 | 35241 ft | 484 kts | 234° |
| 2026-05-04 16:26 | 50.09291 | -61.71984 | 35206 ft | 483 kts | 234° |
| 2026-05-04 16:28 | 49.91806 | -62.11608 | 35280 ft | 483 kts | 234° |
| 2026-05-04 16:29 | 49.65103 | -62.70998 | 35338 ft | 478 kts | 233° |
| 2026-05-04 16:31 | 49.45051 | -63.14740 | 35378 ft | 470 kts | 234° |
| 2026-05-04 16:32 | 49.23347 | -63.61288 | 35416 ft | 477 kts | 234° |
| 2026-05-04 16:33 | 49.08015 | -63.93691 | 35440 ft | 463 kts | 234° |
| 2026-05-04 16:34 | 48.96883 | -64.16974 | 35436 ft | 464 kts | 234° |
| 2026-05-04 16:35 | 48.73904 | -64.64405 | 35437 ft | 462 kts | 233° |
| 2026-05-04 16:36 | 48.62440 | -64.87759 | 35480 ft | 459 kts | 233° |
| 2026-05-04 16:37 | 48.51168 | -65.10527 | 35500 ft | 455 kts | 233° |
| 2026-05-04 16:38 | 48.35991 | -65.40881 | 35508 ft | 458 kts | 233° |
| 2026-05-04 16:39 | 48.16778 | -65.78826 | 35560 ft | 453 kts | 233° |
| 2026-05-04 16:40 | 48.01560 | -66.08508 | 35592 ft | 459 kts | 233° |
| 2026-05-04 16:41 | 47.82033 | -66.46126 | 35607 ft | 460 kts | 232° |
| 2026-05-04 16:43 | 47.61749 | -66.84659 | 35635 ft | 457 kts | 232° |
| 2026-05-04 16:43 | 47.38603 | -67.28184 | 35651 ft | 463 kts | 237° |
| 2026-05-04 16:44 | 47.17794 | -67.96461 | 35672 ft | 449 kts | 246° |
| 2026-05-04 16:45 | 47.07731 | -68.29878 | 35694 ft | 465 kts | 246° |
| 2026-05-04 16:46 | 46.92261 | -68.80393 | 35720 ft | 449 kts | 246° |
| 2026-05-04 16:46 | 46.81959 | -69.13484 | 35753 ft | 463 kts | 246° |
| 2026-05-04 16:47 | 46.71349 | -69.47110 | 35699 ft | 448 kts | 246° |
| 2026-05-04 16:47 | 46.60842 | -69.79988 | 35770 ft | 458 kts | 246° |
| 2026-05-04 16:48 | 46.44804 | -70.29363 | 35721 ft | 446 kts | 246° |
| 2026-05-04 16:48 | 46.39479 | -70.45555 | 35773 ft | 447 kts | 246° |
| 2026-05-04 16:49 | 46.28461 | -70.78736 | 35785 ft | 462 kts | 246° |
| 2026-05-04 16:49 | 46.17768 | -71.10534 | 35720 ft | 445 kts | 246° |
| 2026-05-04 16:50 | 46.06788 | -71.42802 | 35819 ft | 456 kts | 246° |
| 2026-05-04 16:50 | 45.95476 | -71.75625 | 35745 ft | 454 kts | 246° |
| 2026-05-04 16:51 | 45.78997 | -72.22747 | 35817 ft | 455 kts | 246° |
| 2026-05-04 16:52 | 45.60688 | -72.87640 | 35798 ft | 432 kts | 269° |
| 2026-05-04 16:52 | 45.59873 | -73.04214 | 35823 ft | 443 kts | 268° |
| 2026-05-04 16:53 | 45.57930 | -73.39190 | 35726 ft | 435 kts | 268° |
| 2026-05-04 16:54 | 45.53860 | -74.06925 | 35777 ft | 443 kts | 268° |
| 2026-05-04 16:55 | 45.42565 | -75.08103 | 35710 ft | 432 kts | 262° |
| 2026-05-04 16:56 | 45.30226 | -75.91229 | 35698 ft | 430 kts | 262° |
| 2026-05-04 16:57 | 45.17222 | -76.37194 | 35813 ft | 455 kts | 234° |
| 2026-05-04 16:58 | 44.92494 | -76.77454 | 35671 ft | 443 kts | 236° |
| 2026-05-04 16:58 | 44.84469 | -76.90450 | 35687 ft | 436 kts | 236° |
| 2026-05-04 16:59 | 44.72396 | -77.17364 | 35766 ft | 418 kts | 247° |
| 2026-05-04 17:00 | 44.48755 | -77.75069 | 35679 ft | 412 kts | 247° |
| 2026-05-04 17:00 | 44.31228 | -78.17028 | 35739 ft | 431 kts | 246° |
| 2026-05-04 17:01 | 44.19337 | -78.45108 | 35710 ft | 413 kts | 246° |
| 2026-05-04 17:01 | 44.07291 | -78.73302 | 35804 ft | 433 kts | 246° |
| 2026-05-04 17:02 | 43.92418 | -78.98142 | 35591 ft | 392 kts | 236° |
| 2026-05-04 17:02 | 43.88974 | -79.22290 | 35789 ft | 346 kts | 283° |
| 2026-05-04 17:03 | 43.88328 | -79.35718 | 35793 ft | 389 kts | 247° |
| 2026-05-04 17:03 | 43.80667 | -79.47089 | 35759 ft | 404 kts | 234° |
| 2026-05-04 17:03 | 43.65618 | -79.68598 | 35642 ft | 376 kts | 234° |
| 2026-05-04 17:04 | 43.50813 | -79.89812 | 35843 ft | 399 kts | 234° |
| 2026-05-04 17:04 | 43.36181 | -80.11031 | 35633 ft | 382 kts | 234° |
| 2026-05-04 17:05 | 43.21872 | -80.31639 | 35791 ft | 383 kts | 233° |
| 2026-05-04 17:05 | 43.06791 | -80.53754 | 35729 ft | 397 kts | 234° |
| 2026-05-04 17:06 | 42.92326 | -80.74891 | 35697 ft | 371 kts | 233° |
| 2026-05-04 17:06 | 42.85193 | -80.85334 | 35834 ft | 385 kts | 233° |
| 2026-05-04 17:07 | 42.70453 | -81.07250 | 35753 ft | 397 kts | 233° |
| 2026-05-04 17:07 | 42.65611 | -81.14450 | 35683 ft | 385 kts | 233° |
| 2026-05-04 17:07 | 42.56247 | -81.28306 | 35713 ft | 372 kts | 233° |
| 2026-05-04 17:07 | 42.49294 | -81.38604 | 34811 ft | 367 kts | 233° |
| 2026-05-04 17:08 | 42.44080 | -81.46812 | 33203 ft | 354 kts | 252° |
| 2026-05-04 17:08 | 42.43710 | -81.53156 | 32108 ft | 337 kts | 285° |
| 2026-05-04 17:08 | 42.44494 | -81.56116 | 31702 ft | 334 kts | 297° |
| 2026-05-04 17:09 | 42.45792 | -81.58742 | 30982 ft | 341 kts | 311° |
| 2026-05-04 17:09 | 42.47636 | -81.60784 | 30477 ft | 343 kts | 327° |
| 2026-05-04 17:09 | 42.49834 | -81.61958 | 30041 ft | 340 kts | 343° |
| 2026-05-04 17:10 | 42.54488 | -81.61403 | 28691 ft | 347 kts | 15° |
| 2026-05-04 17:10 | 42.60005 | -81.54938 | 26051 ft | 357 kts | 45° |
| 2026-05-04 17:11 | 42.61546 | -81.52318 | 25304 ft | 353 kts | 46° |
| 2026-05-04 17:11 | 42.63059 | -81.49731 | 24625 ft | 348 kts | 45° |
| 2026-05-04 17:11 | 42.66049 | -81.44666 | 23283 ft | 340 kts | 45° |
| 2026-05-04 17:12 | 42.67528 | -81.42186 | 22539 ft | 335 kts | 45° |
| 2026-05-04 17:12 | 42.70395 | -81.37400 | 21248 ft | 323 kts | 45° |
| 2026-05-04 17:13 | 42.74561 | -81.30468 | 19426 ft | 307 kts | 45° |
| 2026-05-04 17:14 | 42.78467 | -81.23963 | 17619 ft | 290 kts | 45° |
| 2026-05-04 17:14 | 42.79726 | -81.21868 | 16799 ft | 290 kts | 46° |
| 2026-05-04 17:14 | 42.82253 | -81.17654 | 15361 ft | 284 kts | 46° |
| 2026-05-04 17:15 | 42.83491 | -81.15586 | 14682 ft | 280 kts | 46° |
| 2026-05-04 17:15 | 42.85926 | -81.11514 | 13344 ft | 274 kts | 47° |
| 2026-05-04 17:16 | 42.88312 | -81.07520 | 11878 ft | 270 kts | 47° |
| 2026-05-04 17:16 | 42.91823 | -81.01635 | 9804 ft | 265 kts | 48° |
| 2026-05-04 17:17 | 42.92981 | -80.99690 | 9105 ft | 264 kts | 48° |
| 2026-05-04 17:17 | 42.96438 | -80.93878 | 7005 ft | 261 kts | 49° |
| 2026-05-04 17:18 | 42.97583 | -80.91950 | 6349 ft | 262 kts | 49° |
| 2026-05-04 17:18 | 42.99848 | -80.88132 | 5098 ft | 258 kts | 50° |
| 2026-05-04 17:19 | 43.02100 | -80.84334 | 3838 ft | 255 kts | 51° |
| 2026-05-04 17:19 | 43.04312 | -80.80591 | 2893 ft | 247 kts | 51° |
| 2026-05-04 17:20 | 43.06280 | -80.77221 | 2736 ft | 213 kts | 51° |
| 2026-05-04 17:20 | 43.09805 | -80.71181 | 2620 ft | 193 kts | 51° |
| 2026-05-04 17:20 | 43.12906 | -80.65850 | 2539 ft | 173 kts | 52° |
| 2026-05-04 17:21 | 43.15400 | -80.61563 | 2740 ft | 198 kts | 52° |
| 2026-05-04 17:21 | 43.17114 | -80.58616 | 2754 ft | 201 kts | 52° |
| 2026-05-04 17:22 | 43.17991 | -80.57102 | 2750 ft | 203 kts | 52° |
| 2026-05-04 17:22 | 43.18871 | -80.55585 | 2741 ft | 203 kts | 51° |
| 2026-05-04 17:23 | 43.21455 | -80.51140 | 2736 ft | 199 kts | 51° |
| 2026-05-04 17:23 | 43.22442 | -80.49431 | 2750 ft | 198 kts | 51° |
| 2026-05-04 17:23 | 43.25757 | -80.43634 | 2750 ft | 194 kts | 53° |
| 2026-05-04 17:24 | 43.27413 | -80.40705 | 2745 ft | 195 kts | 52° |
| 2026-05-04 17:24 | 43.32417 | -80.31912 | 2701 ft | 198 kts | 52° |
| 2026-05-04 17:25 | 43.34106 | -80.28952 | 2754 ft | 199 kts | 52° |
| 2026-05-04 17:25 | 43.37474 | -80.21955 | 2702 ft | 193 kts | 71° |
| 2026-05-04 17:26 | 43.44148 | -79.94680 | 2781 ft | 198 kts | 79° |
| 2026-05-04 17:26 | 43.50253 | -79.61892 | 3126 ft | 201 kts | 95° |
| 2026-05-04 17:27 | 43.52667 | -79.55117 | 3133 ft | 219 kts | 54° |
| 2026-05-04 17:27 | 43.56242 | -79.48344 | 2995 ft | 211 kts | 53° |
| 2026-05-04 17:28 | 43.59670 | -79.41961 | 2985 ft | 209 kts | 51° |
| 2026-05-04 17:29 | 43.63344 | -79.39030 | 3010 ft | 194 kts | 343° |
| 2026-05-04 17:29 | 43.77317 | -79.42390 | 2999 ft | 195 kts | 340° |
| 2026-05-04 17:30 | 43.81463 | -79.43539 | 2382 ft | 189 kts | 345° |
| 2026-05-04 17:31 | 43.83978 | -79.43736 | 1584 ft | 157 kts | 25° |
| 2026-05-04 17:31 | 43.86669 | -79.40702 | 3200 ft | 162 kts | 18° |
| 2026-05-04 17:32 | 43.88727 | -79.41565 | 2077 ft | 101 kts | 268° |
| 2026-05-04 17:33 | 43.86885 | -79.43411 | 1514 ft | 99 kts | 188° |
| 2026-05-04 17:33 | 43.85426 | -79.43905 | 1898 ft | 107 kts | 201° |
| 2026-05-04 17:34 | 43.83157 | -79.47020 | 3643 ft | 125 kts | 244° |
| 2026-05-04 17:34 | 43.82679 | -79.48021 | 3977 ft | 127 kts | 225° |
| 2026-05-04 17:35 | 43.80364 | -79.50334 | 4150 ft | 144 kts | 219° |
| 2026-05-04 17:35 | 43.78272 | -79.51587 | 3763 ft | 173 kts | 213° |
| 2026-05-04 17:35 | 43.77219 | -79.52415 | 3786 ft | 177 kts | 213° |
| 2026-05-04 17:36 | 43.76167 | -79.53265 | 3404 ft | 167 kts | 216° |
| 2026-05-04 17:36 | 43.75268 | -79.54191 | 2848 ft | 157 kts | 218° |
| 2026-05-04 17:36 | 43.74433 | -79.55095 | 2364 ft | 145 kts | 220° |
| 2026-05-04 17:36 | 43.73690 | -79.56048 | 1740 ft | 144 kts | 222° |
| 2026-05-04 17:37 | 43.72971 | -79.57014 | 1522 ft | 138 kts | 223° |
| 2026-05-04 17:37 | 43.72248 | -79.57890 | 1771 ft | 138 kts | 218° |
| 2026-05-04 17:37 | 43.71548 | -79.58896 | 1730 ft | 154 kts | 234° |
| 2026-05-04 17:37 | 43.70999 | -79.60142 | 1484 ft | 151 kts | 245° |
| 2026-05-04 17:38 | 43.70625 | -79.61510 | 1060 ft | 152 kts | 243° |
| 2026-05-04 17:38 | 43.70051 | -79.62590 | 750 ft | 133 kts | 225° |
| 2026-05-04 17:38 | 43.69439 | -79.63490 | 626 ft | 125 kts | 227° |
| 2026-05-04 17:38 | 43.68862 | -79.64303 | 573 ft | 114 kts | 227° |
| 2026-05-04 17:39 | 43.68190 | -79.65281 | 576 ft | 26 kts | 225° |
| 2026-05-04 17:39 | 43.68102 | -79.65391 | 568 ft | 24 kts | 218° |
| 2026-05-04 17:39 | 43.67927 | -79.65482 | 569 ft | 20 kts | 184° |
| 2026-05-04 17:40 | 43.67856 | -79.65419 | 575 ft | 8 kts | 82° |
| 2026-05-04 17:40 | 43.67876 | -79.65347 | 575 ft | 10 kts | 61° |
| 2026-05-04 17:40 | 43.67937 | -79.65232 | 573 ft | 14 kts | 47° |
| 2026-05-04 17:40 | 43.68016 | -79.65129 | 574 ft | 16 kts | 44° |
| 2026-05-04 17:41 | 43.68094 | -79.65018 | 580 ft | 15 kts | 46° |
| 2026-05-04 17:41 | 43.68168 | -79.64909 | 579 ft | 15 kts | 47° |
| 2026-05-04 17:41 | 43.68240 | -79.64799 | 582 ft | 15 kts | 47° |
| 2026-05-04 17:41 | 43.68318 | -79.64690 | 579 ft | 18 kts | 45° |
| 2026-05-04 17:42 | 43.68426 | -79.64536 | 577 ft | 23 kts | 47° |
| 2026-05-04 17:42 | 43.68539 | -79.64362 | 577 ft | 25 kts | 48° |
| 2026-05-04 17:42 | 43.68649 | -79.64202 | 576 ft | 20 kts | 44° |
| 2026-05-04 17:42 | 43.68669 | -79.64032 | 573 ft | 18 kts | 99° |
| 2026-05-04 17:43 | 43.68658 | -79.63890 | 573 ft | 18 kts | 97° |
| 2026-05-04 17:43 | 43.68599 | -79.63742 | 576 ft | 18 kts | 128° |
| 2026-05-04 17:43 | 43.68504 | -79.63610 | 575 ft | 20 kts | 136° |
| 2026-05-04 17:43 | 43.68400 | -79.63484 | 579 ft | 20 kts | 138° |
| 2026-05-04 17:44 | 43.68299 | -79.63352 | 578 ft | 20 kts | 135° |
| 2026-05-04 17:44 | 43.68199 | -79.63217 | 576 ft | 20 kts | 136° |
| 2026-05-04 17:44 | 43.68099 | -79.63088 | 577 ft | 20 kts | 139° |
| 2026-05-04 17:44 | 43.67995 | -79.62960 | 575 ft | 20 kts | 137° |
| 2026-05-04 17:45 | 43.67894 | -79.62828 | 574 ft | 20 kts | 136° |
| 2026-05-04 17:45 | 43.67791 | -79.62698 | 577 ft | 20 kts | 138° |
| 2026-05-04 17:45 | 43.67689 | -79.62563 | 578 ft | 23 kts | 135° |
| 2026-05-04 17:45 | 43.67534 | -79.62362 | 578 ft | 35 kts | 138° |
| 2026-05-04 17:46 | 43.67385 | -79.62170 | 575 ft | 17 kts | 134° |
| 2026-05-04 17:46 | 43.67371 | -79.62038 | 577 ft | 15 kts | 54° |
| 2026-05-04 17:46 | 43.67437 | -79.61926 | 580 ft | 15 kts | 49° |
| 2026-05-04 17:46 | 43.67509 | -79.61816 | 578 ft | 16 kts | 45° |
| 2026-05-04 17:47 | 43.67595 | -79.61696 | 577 ft | 20 kts | 41° |
| 2026-05-04 17:47 | 43.67651 | -79.61599 | 576 ft | 0 kts | 69° |
| 2026-05-04 17:47 | 43.67650 | -79.61569 | 574 ft | 10 kts | 97° |
| 2026-05-04 17:47 | 43.67607 | -79.61486 | 573 ft | 15 kts | 133° |
| 2026-05-04 17:48 | 43.67516 | -79.61366 | 571 ft | 14 kts | 137° |
| 2026-05-04 17:48 | 43.67476 | -79.61301 | 575 ft | 8 kts | 107° |
| 2026-05-04 17:48 | 43.67466 | -79.61202 | 569 ft | 10 kts | 75° |
| 2026-05-04 17:48 | 43.67527 | -79.61169 | 570 ft | 11 kts | 4° |
| 2026-05-04 17:49 | 43.67575 | -79.61169 | 571 ft | 5 kts | 4° |
| 2026-05-04 17:49 | 43.67580 | -79.61168 | 571 ft | 0 kts | 4° |